PWSweather.com
Personal Weather Stations
Station Observations
SHAHALMS1
Eftra, Falkenberg, HA

EftraFalkenberg, HA

Lat: 56.85, Lon: 12.65

Elevation: 140

Station Type:

http://hem.passagen.se/risarp101

High Low Average
Temperature 43.3°F6.3°C 38.3°F3.5°C 41.4°F5.2°C
Dew Point 41.2°F5.1°C 34.8°F1.6°C 38.9°F3.8°C
Winds 10.1 mph 16.3 kmh 2.9 mph 4.7 kmh 6.0 mph S9.7 kmh S
Wind Gusts 27.6 mph44.4 kmh 8.9 mph14.3 kmh 15.0 mph24.1 kmh
Humidity 93% 87% 91%
Pressure 29.50 in999.0 mb 29.41 in995.9 mb -
Precipitation 0.05 in1.3 mm - -
Hour Temp Dew Point Humidity Winds Wind Gusts Pressure Precip Precip Rate Daily Precip Total
12:00 AM 38.3°F3.5°C 34.2°F1.2°C 85% 11.4 mph SE18.3 kmh SE 23.3 mph37.5 kmh 29.50 in999.0 mb 0.00 in0.0 mm 0.00 in0.0 mm 0.00 in0.0 mm
12:15 AM 38.3°F3.5°C 34.2°F1.2°C 85% 7.6 mph SSE12.2 kmh SSE 14.0 mph22.5 kmh 29.50 in999.0 mb 0.00 in0.0 mm 0.00 in0.0 mm 0.00 in0.0 mm
12:30 AM 38.5°F3.6°C 34.9°F1.6°C 87% 8.0 mph SSE12.9 kmh SSE 16.1 mph25.9 kmh 29.50 in999.0 mb 0.00 in0.0 mm 0.00 in0.0 mm 0.00 in0.0 mm
12:45 AM 38.3°F3.5°C 34.8°F1.6°C 87% 8.6 mph SE13.8 kmh SE 19.7 mph31.7 kmh 29.50 in999.0 mb 0.00 in0.0 mm 0.00 in0.0 mm 0.00 in0.0 mm
01:00 AM 38.3°F3.5°C 34.8°F1.6°C 87% 9.1 mph SE14.6 kmh SE 17.5 mph28.2 kmh 29.50 in999.0 mb 0.00 in0.0 mm 0.00 in0.0 mm 0.00 in0.0 mm
01:15 AM 38.3°F3.5°C 35.1°F1.7°C 88% 7.3 mph SSE11.7 kmh SSE 16.8 mph27.0 kmh 29.50 in999.0 mb 0.00 in0.0 mm 0.00 in0.0 mm 0.00 in0.0 mm
01:30 AM 38.3°F3.5°C 35.1°F1.7°C 88% 10.1 mph SE16.3 kmh SE 20.4 mph32.8 kmh 29.47 in998.0 mb 0.00 in0.0 mm 0.00 in0.0 mm 0.00 in0.0 mm
01:45 AM 38.3°F3.5°C 35.1°F1.7°C 88% 8.1 mph SE13.0 kmh SE 17.5 mph28.2 kmh 29.50 in999.0 mb 0.00 in0.0 mm 0.00 in0.0 mm 0.00 in0.0 mm
02:00 AM 38.3°F3.5°C 35.3°F1.8°C 89% 6.5 mph SSE10.5 kmh SSE 17.5 mph28.2 kmh 29.47 in998.0 mb 0.05 in1.3 mm 0.07 in1.8 mm 0.05 in1.3 mm
02:15 AM 38.3°F3.5°C 35.3°F1.8°C 89% 7.2 mph SE11.6 kmh SE 16.8 mph27.0 kmh 29.47 in998.0 mb 0.05 in1.3 mm 0.00 in0.0 mm 0.05 in1.3 mm
02:30 AM 38.3°F3.5°C 35.3°F1.8°C 89% 7.2 mph SE11.6 kmh SE 15.7 mph25.3 kmh 29.47 in998.0 mb 0.05 in1.3 mm 0.00 in0.0 mm 0.05 in1.3 mm
02:45 AM 38.3°F3.5°C 35.6°F2.0°C 90% 6.4 mph SE10.3 kmh SE 20.4 mph32.8 kmh 29.47 in998.0 mb 0.05 in1.3 mm 0.00 in0.0 mm 0.05 in1.3 mm
03:00 AM 38.7°F3.7°C 36.0°F2.2°C 90% 9.0 mph SE14.5 kmh SE 16.1 mph25.9 kmh 29.47 in998.0 mb 0.00 in0.0 mm 0.00 in0.0 mm 0.05 in1.3 mm
03:15 AM 38.7°F3.7°C 36.0°F2.2°C 90% 8.5 mph SE13.7 kmh SE 16.8 mph27.0 kmh 29.47 in998.0 mb 0.00 in0.0 mm 0.00 in0.0 mm 0.05 in1.3 mm
03:30 AM 38.7°F3.7°C 36.0°F2.2°C 90% 8.4 mph SE13.5 kmh SE 20.4 mph32.8 kmh 29.47 in998.0 mb 0.00 in0.0 mm 0.00 in0.0 mm 0.05 in1.3 mm
03:45 AM 38.7°F3.7°C 36.0°F2.2°C 90% 8.8 mph SE14.2 kmh SE 17.5 mph28.2 kmh 29.47 in998.0 mb 0.00 in0.0 mm 0.00 in0.0 mm 0.05 in1.3 mm
04:00 AM 38.8°F3.8°C 36.4°F2.4°C 91% 6.9 mph SE11.1 kmh SE 17.2 mph27.7 kmh 29.45 in997.3 mb 0.00 in0.0 mm 0.00 in0.0 mm 0.05 in1.3 mm
04:15 AM 38.8°F3.8°C 36.4°F2.4°C 91% 7.9 mph SSE12.7 kmh SSE 16.5 mph26.6 kmh 29.45 in997.3 mb 0.00 in0.0 mm 0.00 in0.0 mm 0.05 in1.3 mm
04:30 AM 38.7°F3.7°C 36.3°F2.4°C 91% 7.7 mph SSE12.4 kmh SSE 19.3 mph31.1 kmh 29.45 in997.3 mb 0.00 in0.0 mm 0.00 in0.0 mm 0.05 in1.3 mm
04:45 AM 38.8°F3.8°C 36.4°F2.4°C 91% 6.5 mph SE10.5 kmh SE 16.5 mph26.6 kmh 29.45 in997.3 mb 0.00 in0.0 mm 0.00 in0.0 mm 0.05 in1.3 mm
05:00 AM 38.8°F3.8°C 36.4°F2.4°C 91% 6.6 mph SSE10.6 kmh SSE 15.7 mph25.3 kmh 29.45 in997.3 mb 0.00 in0.0 mm 0.00 in0.0 mm 0.05 in1.3 mm
05:15 AM 39.2°F4.0°C 36.8°F2.7°C 91% 5.4 mph S8.7 kmh S 12.9 mph20.8 kmh 29.45 in997.3 mb 0.00 in0.0 mm 0.00 in0.0 mm 0.05 in1.3 mm
05:30 AM 39.2°F4.0°C 36.8°F2.7°C 91% 4.4 mph S7.1 kmh S 13.6 mph21.9 kmh 29.45 in997.3 mb 0.00 in0.0 mm 0.00 in0.0 mm 0.05 in1.3 mm
05:45 AM 39.4°F4.1°C 37.0°F2.8°C 91% 4.2 mph S6.8 kmh S 15.0 mph24.1 kmh 29.45 in997.3 mb 0.00 in0.0 mm 0.00 in0.0 mm 0.05 in1.3 mm
06:00 AM 39.6°F4.2°C 37.4°F3.0°C 92% 7.3 mph SE11.7 kmh SE 19.7 mph31.7 kmh 29.45 in997.3 mb 0.00 in0.0 mm 0.00 in0.0 mm 0.05 in1.3 mm
06:15 AM 39.6°F4.2°C 37.4°F3.0°C 92% 3.6 mph SE5.8 kmh SE 11.8 mph19.0 kmh 29.45 in997.3 mb 0.00 in0.0 mm 0.00 in0.0 mm 0.05 in1.3 mm
06:30 AM 39.7°F4.3°C 37.6°F3.1°C 92% 5.1 mph SSE8.2 kmh SSE 14.0 mph22.5 kmh 29.45 in997.3 mb 0.00 in0.0 mm 0.00 in0.0 mm 0.05 in1.3 mm
06:45 AM 39.9°F4.4°C 37.8°F3.2°C 92% 7.9 mph SSE12.7 kmh SSE 16.1 mph25.9 kmh 29.47 in998.0 mb 0.00 in0.0 mm 0.00 in0.0 mm 0.05 in1.3 mm
07:00 AM 39.9°F4.4°C 37.8°F3.2°C 92% 5.8 mph SSE9.3 kmh SSE 12.5 mph20.1 kmh 29.47 in998.0 mb 0.00 in0.0 mm 0.00 in0.0 mm 0.05 in1.3 mm
07:15 AM 40.1°F4.5°C 38.0°F3.3°C 92% 6.1 mph SSE9.8 kmh SSE 19.0 mph30.6 kmh 29.47 in998.0 mb 0.00 in0.0 mm 0.00 in0.0 mm 0.05 in1.3 mm
07:30 AM 40.3°F4.6°C 38.4°F3.6°C 93% 6.7 mph SSE10.8 kmh SSE 17.5 mph28.2 kmh 29.45 in997.3 mb 0.00 in0.0 mm 0.00 in0.0 mm 0.05 in1.3 mm
07:45 AM 40.5°F4.7°C 38.6°F3.7°C 93% 9.1 mph S14.6 kmh S 21.8 mph35.1 kmh 29.47 in998.0 mb 0.00 in0.0 mm 0.00 in0.0 mm 0.05 in1.3 mm
08:00 AM 40.5°F4.7°C 38.6°F3.7°C 93% 6.0 mph SSE9.7 kmh SSE 23.6 mph38.0 kmh 29.45 in997.3 mb 0.00 in0.0 mm 0.00 in0.0 mm 0.05 in1.3 mm
08:15 AM 40.6°F4.8°C 38.8°F3.8°C 93% 5.1 mph SSE8.2 kmh SSE 13.6 mph21.9 kmh 29.45 in997.3 mb 0.00 in0.0 mm 0.00 in0.0 mm 0.05 in1.3 mm
08:30 AM 40.6°F4.8°C 38.8°F3.8°C 93% 5.7 mph SSE9.2 kmh SSE 17.5 mph28.2 kmh 29.47 in998.0 mb 0.00 in0.0 mm 0.00 in0.0 mm 0.05 in1.3 mm
08:45 AM 40.6°F4.8°C 38.8°F3.8°C 93% 5.7 mph SSE9.2 kmh SSE 17.2 mph27.7 kmh 29.47 in998.0 mb 0.00 in0.0 mm 0.00 in0.0 mm 0.05 in1.3 mm
09:00 AM 40.8°F4.9°C 39.0°F3.9°C 93% 5.1 mph SSE8.2 kmh SSE 12.5 mph20.1 kmh 29.47 in998.0 mb 0.00 in0.0 mm 0.00 in0.0 mm 0.05 in1.3 mm
09:15 AM 41.0°F5.0°C 39.1°F3.9°C 93% 5.1 mph SSE8.2 kmh SSE 11.8 mph19.0 kmh 29.47 in998.0 mb 0.00 in0.0 mm 0.00 in0.0 mm 0.05 in1.3 mm
09:30 AM 41.0°F5.0°C 39.1°F3.9°C 93% 6.4 mph S10.3 kmh S 17.2 mph27.7 kmh 29.47 in998.0 mb 0.00 in0.0 mm 0.00 in0.0 mm 0.05 in1.3 mm
09:45 AM 41.0°F5.0°C 39.1°F3.9°C 93% 4.6 mph SSE7.4 kmh SSE 12.5 mph20.1 kmh 29.47 in998.0 mb 0.00 in0.0 mm 0.00 in0.0 mm 0.05 in1.3 mm
10:00 AM 41.2°F5.1°C 39.3°F4.1°C 93% 7.5 mph SSE12.1 kmh SSE 19.3 mph31.1 kmh 29.47 in998.0 mb 0.00 in0.0 mm 0.00 in0.0 mm 0.05 in1.3 mm
10:15 AM 41.4°F5.2°C 39.5°F4.2°C 93% 7.1 mph S11.4 kmh S 19.7 mph31.7 kmh 29.47 in998.0 mb 0.00 in0.0 mm 0.00 in0.0 mm 0.05 in1.3 mm
10:30 AM 41.4°F5.2°C 39.2°F4.0°C 92% 7.1 mph SSE11.4 kmh SSE 17.9 mph28.8 kmh 29.47 in998.0 mb 0.00 in0.0 mm 0.00 in0.0 mm 0.05 in1.3 mm
10:45 AM 41.5°F5.3°C 39.4°F4.1°C 92% 8.2 mph SSE13.2 kmh SSE 16.8 mph27.0 kmh 29.45 in997.3 mb 0.00 in0.0 mm 0.00 in0.0 mm 0.05 in1.3 mm
11:00 AM 41.5°F5.3°C 39.4°F4.1°C 92% 8.8 mph SSE14.2 kmh SSE 17.2 mph27.7 kmh 29.47 in998.0 mb 0.00 in0.0 mm 0.00 in0.0 mm 0.05 in1.3 mm
11:15 AM 41.7°F5.4°C 39.6°F4.2°C 92% 5.4 mph S8.7 kmh S 14.0 mph22.5 kmh 29.45 in997.3 mb 0.00 in0.0 mm 0.00 in0.0 mm 0.05 in1.3 mm
11:30 AM 41.9°F5.5°C 39.7°F4.3°C 92% 4.2 mph S6.8 kmh S 27.6 mph44.4 kmh 29.47 in998.0 mb 0.00 in0.0 mm 0.00 in0.0 mm 0.05 in1.3 mm
11:45 AM 42.1°F5.6°C 39.9°F4.4°C 92% 6.3 mph S10.1 kmh S 16.8 mph27.0 kmh 29.47 in998.0 mb 0.00 in0.0 mm 0.00 in0.0 mm 0.05 in1.3 mm
12:00 PM 42.3°F5.7°C 40.1°F4.5°C 92% 5.8 mph S9.3 kmh S 25.8 mph41.5 kmh 29.47 in998.0 mb 0.00 in0.0 mm 0.00 in0.0 mm 0.05 in1.3 mm
12:15 PM 42.6°F5.9°C 40.5°F4.7°C 92% 3.7 mph S6.0 kmh S 12.2 mph19.6 kmh 29.47 in998.0 mb 0.00 in0.0 mm 0.00 in0.0 mm 0.05 in1.3 mm
12:30 PM 43.0°F6.1°C 40.8°F4.9°C 92% 6.1 mph S9.8 kmh S 11.8 mph19.0 kmh 29.45 in997.3 mb 0.00 in0.0 mm 0.00 in0.0 mm 0.05 in1.3 mm
12:45 PM 43.2°F6.2°C 41.0°F5.0°C 92% 5.0 mph S8.0 kmh S 14.0 mph22.5 kmh 29.45 in997.3 mb 0.00 in0.0 mm 0.00 in0.0 mm 0.05 in1.3 mm
01:00 PM 43.3°F6.3°C 41.2°F5.1°C 92% 6.2 mph S10.0 kmh S 12.5 mph20.1 kmh 29.45 in997.3 mb 0.00 in0.0 mm 0.00 in0.0 mm 0.05 in1.3 mm
01:15 PM 43.3°F6.3°C 40.9°F4.9°C 91% 7.0 mph S11.3 kmh S 16.8 mph27.0 kmh 29.45 in997.3 mb 0.00 in0.0 mm 0.00 in0.0 mm 0.05 in1.3 mm
01:30 PM 43.2°F6.2°C 40.7°F4.8°C 91% 7.9 mph S12.7 kmh S 16.5 mph26.6 kmh 29.45 in997.3 mb 0.00 in0.0 mm 0.00 in0.0 mm 0.05 in1.3 mm
01:45 PM 43.2°F6.2°C 40.4°F4.7°C 90% 7.3 mph SSW11.7 kmh SSW 19.3 mph31.1 kmh 29.45 in997.3 mb 0.00 in0.0 mm 0.00 in0.0 mm 0.05 in1.3 mm
02:00 PM 43.2°F6.2°C 40.4°F4.7°C 90% 6.8 mph S10.9 kmh S 13.6 mph21.9 kmh 29.45 in997.3 mb 0.00 in0.0 mm 0.00 in0.0 mm 0.05 in1.3 mm
02:15 PM 43.2°F6.2°C 40.1°F4.5°C 89% 8.5 mph S13.7 kmh S 19.0 mph30.6 kmh 29.45 in997.3 mb 0.00 in0.0 mm 0.00 in0.0 mm 0.05 in1.3 mm
02:30 PM 43.2°F6.2°C 39.8°F4.3°C 88% 7.6 mph S12.2 kmh S 17.2 mph27.7 kmh 29.45 in997.3 mb 0.00 in0.0 mm 0.00 in0.0 mm 0.05 in1.3 mm
02:45 PM 43.2°F6.2°C 39.8°F4.3°C 88% 6.8 mph S10.9 kmh S 17.5 mph28.2 kmh 29.41 in995.9 mb 0.00 in0.0 mm 0.00 in0.0 mm 0.05 in1.3 mm
03:00 PM 43.2°F6.2°C 40.1°F4.5°C 89% 6.8 mph S10.9 kmh S 19.0 mph30.6 kmh 29.41 in995.9 mb 0.00 in0.0 mm 0.00 in0.0 mm 0.05 in1.3 mm
03:15 PM 43.2°F6.2°C 40.1°F4.5°C 89% 5.2 mph S8.4 kmh S 12.9 mph20.8 kmh 29.45 in997.3 mb 0.00 in0.0 mm 0.00 in0.0 mm 0.05 in1.3 mm
03:30 PM 43.2°F6.2°C 40.1°F4.5°C 89% 6.1 mph S9.8 kmh S 15.4 mph24.8 kmh 29.45 in997.3 mb 0.00 in0.0 mm 0.00 in0.0 mm 0.05 in1.3 mm
03:45 PM 43.0°F6.1°C 40.0°F4.4°C 89% 4.8 mph S7.7 kmh S 16.5 mph26.6 kmh 29.45 in997.3 mb 0.00 in0.0 mm 0.00 in0.0 mm 0.05 in1.3 mm
04:00 PM 43.0°F6.1°C 40.0°F4.4°C 89% 5.3 mph S8.5 kmh S 10.4 mph16.7 kmh 29.41 in995.9 mb 0.00 in0.0 mm 0.00 in0.0 mm 0.05 in1.3 mm
04:15 PM 43.0°F6.1°C 40.0°F4.4°C 89% 5.5 mph S8.9 kmh S 12.2 mph19.6 kmh 29.45 in997.3 mb 0.00 in0.0 mm 0.00 in0.0 mm 0.05 in1.3 mm
04:30 PM 43.0°F6.1°C 40.0°F4.4°C 89% 6.0 mph S9.7 kmh S 12.5 mph20.1 kmh 29.41 in995.9 mb 0.00 in0.0 mm 0.00 in0.0 mm 0.05 in1.3 mm
04:45 PM 43.0°F6.1°C 40.2°F4.6°C 90% 6.1 mph S9.8 kmh S 16.5 mph26.6 kmh 29.41 in995.9 mb 0.00 in0.0 mm 0.00 in0.0 mm 0.05 in1.3 mm
05:00 PM 43.0°F6.1°C 40.0°F4.4°C 89% 7.0 mph SSW11.3 kmh SSW 13.6 mph21.9 kmh 29.41 in995.9 mb 0.00 in0.0 mm 0.00 in0.0 mm 0.05 in1.3 mm
05:15 PM 43.0°F6.1°C 40.0°F4.4°C 89% 6.5 mph S10.5 kmh S 16.1 mph25.9 kmh 29.41 in995.9 mb 0.00 in0.0 mm 0.00 in0.0 mm 0.05 in1.3 mm
05:30 PM 42.8°F6.0°C 39.8°F4.3°C 89% 4.9 mph S7.9 kmh S 10.4 mph16.7 kmh 29.45 in997.3 mb 0.00 in0.0 mm 0.00 in0.0 mm 0.05 in1.3 mm
05:45 PM 43.0°F6.1°C 40.0°F4.4°C 89% 6.4 mph SSW10.3 kmh SSW 14.0 mph22.5 kmh 29.41 in995.9 mb 0.00 in0.0 mm 0.00 in0.0 mm 0.05 in1.3 mm
06:00 PM 43.0°F6.1°C 40.0°F4.4°C 89% 6.6 mph S10.6 kmh S 17.2 mph27.7 kmh 29.45 in997.3 mb 0.00 in0.0 mm 0.00 in0.0 mm 0.05 in1.3 mm
06:15 PM 43.0°F6.1°C 40.0°F4.4°C 89% 4.6 mph S7.4 kmh S 11.8 mph19.0 kmh 29.41 in995.9 mb 0.00 in0.0 mm 0.00 in0.0 mm 0.05 in1.3 mm
06:30 PM 43.0°F6.1°C 40.2°F4.6°C 90% 4.9 mph S7.9 kmh S 9.7 mph15.6 kmh 29.45 in997.3 mb 0.00 in0.0 mm 0.00 in0.0 mm 0.05 in1.3 mm
06:45 PM 43.0°F6.1°C 40.2°F4.6°C 90% 5.2 mph S8.4 kmh S 11.8 mph19.0 kmh 29.41 in995.9 mb 0.00 in0.0 mm 0.00 in0.0 mm 0.05 in1.3 mm
07:00 PM 43.0°F6.1°C 40.2°F4.6°C 90% 4.6 mph S7.4 kmh S 9.3 mph15.0 kmh 29.47 in998.0 mb 0.00 in0.0 mm 0.00 in0.0 mm 0.05 in1.3 mm
07:15 PM 43.0°F6.1°C 40.2°F4.6°C 90% 4.8 mph S7.7 kmh S 10.0 mph16.1 kmh 29.45 in997.3 mb 0.00 in0.0 mm 0.00 in0.0 mm 0.05 in1.3 mm
07:30 PM 43.0°F6.1°C 40.2°F4.6°C 90% 4.8 mph S7.7 kmh S 12.2 mph19.6 kmh 29.45 in997.3 mb 0.00 in0.0 mm 0.00 in0.0 mm 0.05 in1.3 mm
07:45 PM 43.0°F6.1°C 40.2°F4.6°C 90% 6.5 mph S10.5 kmh S 14.0 mph22.5 kmh 29.45 in997.3 mb 0.00 in0.0 mm 0.00 in0.0 mm 0.05 in1.3 mm
08:00 PM 42.8°F6.0°C 40.1°F4.5°C 90% 6.1 mph S9.8 kmh S 14.0 mph22.5 kmh 29.45 in997.3 mb 0.00 in0.0 mm 0.00 in0.0 mm 0.05 in1.3 mm
08:15 PM 42.8°F6.0°C 40.1°F4.5°C 90% 5.2 mph S8.4 kmh S 13.6 mph21.9 kmh 29.45 in997.3 mb 0.00 in0.0 mm 0.00 in0.0 mm 0.05 in1.3 mm
08:30 PM 42.8°F6.0°C 40.1°F4.5°C 90% 4.1 mph S6.6 kmh S 12.9 mph20.8 kmh 29.45 in997.3 mb 0.00 in0.0 mm 0.00 in0.0 mm 0.05 in1.3 mm
08:45 PM 43.0°F6.1°C 40.2°F4.6°C 90% 5.3 mph S8.5 kmh S 15.7 mph25.3 kmh 29.45 in997.3 mb 0.00 in0.0 mm 0.00 in0.0 mm 0.05 in1.3 mm
09:00 PM 43.0°F6.1°C 40.2°F4.6°C 90% 4.3 mph SSW6.9 kmh SSW 11.8 mph19.0 kmh 29.45 in997.3 mb 0.00 in0.0 mm 0.00 in0.0 mm 0.05 in1.3 mm
09:15 PM 42.8°F6.0°C 40.1°F4.5°C 90% 4.6 mph SW7.4 kmh SW 10.0 mph16.1 kmh 29.45 in997.3 mb 0.00 in0.0 mm 0.00 in0.0 mm 0.05 in1.3 mm
09:30 PM 42.8°F6.0°C 40.1°F4.5°C 90% 3.8 mph S6.1 kmh S 10.7 mph17.2 kmh 29.45 in997.3 mb 0.00 in0.0 mm 0.00 in0.0 mm 0.05 in1.3 mm
09:45 PM 43.0°F6.1°C 40.5°F4.7°C 91% 5.0 mph S8.0 kmh S 16.1 mph25.9 kmh 29.45 in997.3 mb 0.00 in0.0 mm 0.00 in0.0 mm 0.05 in1.3 mm
10:00 PM 43.0°F6.1°C 40.2°F4.6°C 90% 4.4 mph S7.1 kmh S 11.8 mph19.0 kmh 29.45 in997.3 mb 0.00 in0.0 mm 0.00 in0.0 mm 0.05 in1.3 mm
10:15 PM 42.8°F6.0°C 40.1°F4.5°C 90% 2.9 mph S4.7 kmh S 8.9 mph14.3 kmh 29.45 in997.3 mb 0.00 in0.0 mm 0.00 in0.0 mm 0.05 in1.3 mm
10:30 PM 42.8°F6.0°C 40.1°F4.5°C 90% 4.1 mph S6.6 kmh S 13.6 mph21.9 kmh 29.45 in997.3 mb 0.00 in0.0 mm 0.00 in0.0 mm 0.05 in1.3 mm
10:45 PM 42.6°F5.9°C 39.9°F4.4°C 90% 4.3 mph S6.9 kmh S 16.1 mph25.9 kmh 29.45 in997.3 mb 0.00 in0.0 mm 0.00 in0.0 mm 0.05 in1.3 mm
11:00 PM 42.6°F5.9°C 39.9°F4.4°C 90% 4.0 mph S6.4 kmh S 11.8 mph19.0 kmh 29.45 in997.3 mb 0.00 in0.0 mm 0.00 in0.0 mm 0.05 in1.3 mm
11:15 PM 42.4°F5.8°C 39.4°F4.1°C 89% 4.6 mph S7.4 kmh S 11.8 mph19.0 kmh 29.41 in995.9 mb 0.00 in0.0 mm 0.00 in0.0 mm 0.05 in1.3 mm
11:30 PM 42.6°F5.9°C 39.6°F4.2°C 89% 6.0 mph S9.7 kmh S 17.2 mph27.7 kmh 29.41 in995.9 mb 0.00 in0.0 mm 0.00 in0.0 mm 0.05 in1.3 mm
11:45 PM 42.6°F5.9°C 39.6°F4.2°C 89% 4.6 mph S7.4 kmh S 15.0 mph24.1 kmh 29.41 in995.9 mb 0.00 in0.0 mm 0.00 in0.0 mm 0.05 in1.3 mm